Time;durP1;ratioP1;P1;durP2;ratioP2;P2;SDS_P1;SDS_P2;PMS_P1;PMS_P2;Temp;Humidity;BMP_temperature;BMP_pressure;BME280_temperature;BME280_humidity;BME280_pressure;Samples;Min_cycle;Max_cycle;Signal;HPM_P1;HPM_P2
2023/07/29 00:01:14;;;;;;;5.10;2.40;;;;;;;16.95;100.00;98954.97;108841;1236;74355;-79
2023/07/29 00:03:41;;;;;;;4.30;2.40;;;;;;;16.94;100.00;98958.81;107996;1234;1002961;-78
2023/07/29 00:06:09;;;;;;;4.00;2.70;;;;;;;16.93;100.00;98958.50;108694;1237;71125;-79
2023/07/29 00:08:36;;;;;;;4.40;3.20;;;;;;;16.94;100.00;98958.97;108735;1236;61839;-80
2023/07/29 00:11:02;;;;;;;4.10;2.70;;;;;;;16.94;100.00;98962.86;108692;1238;61168;-80
2023/07/29 00:13:29;;;;;;;7.90;3.10;;;;;;;16.93;100.00;98961.85;106449;1236;1003082;-80
2023/07/29 00:15:56;;;;;;;4.50;2.60;;;;;;;16.93;100.00;98960.08;108733;1234;70805;-78
2023/07/29 00:18:23;;;;;;;3.00;2.80;;;;;;;16.93;100.00;98960.10;108662;1237;71632;-77
2023/07/29 00:20:50;;;;;;;3.60;2.80;;;;;;;16.94;100.00;98956.33;108749;1234;62155;-78
2023/07/29 00:23:18;;;;;;;9.40;3.00;;;;;;;16.93;100.00;98965.23;108708;1236;61133;-80
2023/07/29 00:25:45;;;;;;;3.10;2.60;;;;;;;16.91;100.00;98961.64;108871;1236;74803;-79
2023/07/29 00:28:12;;;;;;;4.30;2.70;;;;;;;16.90;100.00;98961.19;108766;1236;69783;-78
2023/07/29 00:30:39;;;;;;;3.20;2.90;;;;;;;16.89;100.00;98963.71;109372;1234;71246;-78
2023/07/29 00:33:06;;;;;;;9.40;3.20;;;;;;;16.90;100.00;98964.03;108964;1232;61697;-79
2023/07/29 00:35:32;;;;;;;5.10;3.20;;;;;;;16.89;100.00;98961.95;108743;1232;61383;-78
2023/07/29 00:38:00;;;;;;;6.10;3.40;;;;;;;16.89;100.00;98960.89;108711;1236;74474;-80
2023/07/29 00:40:28;;;;;;;12.00;3.60;;;;;;;16.90;100.00;98964.39;108738;1240;70803;-79
2023/07/29 00:42:54;;;;;;;5.50;3.60;;;;;;;16.91;100.00;98963.60;108750;1234;72734;-79
2023/07/29 00:45:21;;;;;;;5.10;3.20;;;;;;;16.93;100.00;98965.98;108779;1234;61265;-79
2023/07/29 00:47:48;;;;;;;5.70;3.50;;;;;;;16.94;100.00;98969.94;108600;1239;61146;-80
2023/07/29 00:50:16;;;;;;;6.40;3.00;;;;;;;16.94;100.00;98971.52;108843;1236;74391;-81
2023/07/29 00:52:43;;;;;;;3.10;2.80;;;;;;;16.95;100.00;98968.63;108724;1234;69914;-79
2023/07/29 00:55:10;;;;;;;4.50;2.40;;;;;;;16.96;100.00;98969.07;108822;1235;70991;-80
2023/07/29 00:57:36;;;;;;;11.20;3.20;;;;;;;16.97;100.00;98967.60;108541;1234;62068;-79
2023/07/29 01:00:05;;;;;;;6.10;2.40;;;;;;;16.98;100.00;98962.77;108779;1235;61328;-80
2023/07/29 01:02:33;;;;;;;4.10;2.30;;;;;;;16.98;100.00;98960.29;108820;1234;73678;-80
2023/07/29 01:05:00;;;;;;;2.70;2.50;;;;;;;16.98;100.00;98959.56;108809;1233;69522;-79
2023/07/29 01:07:39;;;;;;;5.00;2.20;;;;;;;16.99;100.00;98954.56;108706;1233;72412;-80
2023/07/29 01:10:19;;;;;;;2.70;2.20;;;;;;;17.01;100.00;98954.23;108703;1232;61335;-79
2023/07/29 01:12:51;;;;;;;2.20;2.00;;;;;;;17.02;100.00;98953.77;108526;1233;61266;-79
2023/07/29 01:15:21;;;;;;;4.70;2.30;;;;;;;17.04;100.00;98953.84;108794;1237;74595;-80
2023/07/29 01:17:52;;;;;;;4.90;2.30;;;;;;;17.04;100.00;98953.13;108742;1234;71023;-78
2023/07/29 01:20:20;;;;;;;2.90;2.60;;;;;;;17.05;100.00;98953.77;108748;1235;72627;-79
2023/07/29 01:22:47;;;;;;;6.20;2.10;;;;;;;17.05;100.00;98953.73;108724;1232;61223;-79
2023/07/29 01:25:13;;;;;;;3.80;2.20;;;;;;;17.05;100.00;98950.55;108701;1245;61168;-78
2023/07/29 01:27:42;;;;;;;3.60;2.30;;;;;;;17.05;100.00;98957.64;108738;1236;61457;-81
2023/07/29 01:30:09;;;;;;;3.90;2.50;;;;;;;17.05;100.00;98956.77;108817;1236;71044;-78
2023/07/29 01:32:39;;;;;;;5.00;2.40;;;;;;;17.05;100.00;98957.65;108792;1234;72417;-79
2023/07/29 01:35:26;;;;;;;3.70;2.40;;;;;;;17.05;100.00;98960.49;108770;1235;61698;-79
2023/07/29 01:38:01;;;;;;;2.30;2.20;;;;;;;17.03;100.00;98964.86;108883;1237;61199;-80
2023/07/29 01:40:29;;;;;;;4.80;2.80;;;;;;;17.02;100.00;98962.64;108874;1234;74284;-78
2023/07/29 01:42:56;;;;;;;3.70;2.50;;;;;;;17.01;100.00;98961.65;108552;1234;70873;-81
2023/07/29 01:45:25;;;;;;;3.20;2.40;;;;;;;17.01;100.00;98961.98;108813;1234;72432;-80
2023/07/29 01:47:52;;;;;;;5.60;2.60;;;;;;;17.01;100.00;98963.27;108948;1236;61316;-80
2023/07/29 01:50:19;;;;;;;3.00;2.40;;;;;;;16.99;100.00;98961.43;108749;1235;61235;-79
2023/07/29 01:52:45;;;;;;;10.20;2.40;;;;;;;16.99;100.00;98962.68;108762;1235;73613;-79
2023/07/29 01:55:12;;;;;;;5.40;2.20;;;;;;;16.98;100.00;98962.41;108839;1237;70908;-79
2023/07/29 01:57:39;;;;;;;3.50;2.60;;;;;;;16.96;100.00;98964.45;108713;1236;73054;-79
2023/07/29 02:00:06;;;;;;;2.60;2.40;;;;;;;16.95;100.00;98966.66;108588;1246;61331;-79
2023/07/29 02:02:40;;;;;;;2.90;2.00;;;;;;;16.94;100.00;98967.09;108813;1236;61342;-79
2023/07/29 02:05:08;;;;;;;3.20;2.40;;;;;;;16.94;100.00;98963.20;108778;1236;74371;-79
2023/07/29 02:07:34;;;;;;;2.90;2.50;;;;;;;16.94;100.00;98957.89;108587;1234;69237;-79
2023/07/29 02:10:01;;;;;;;5.70;2.90;;;;;;;16.94;100.00;98963.44;108613;1235;61402;-79
2023/07/29 02:12:28;;;;;;;3.80;2.60;;;;;;;16.93;100.00;98961.88;108850;1234;61206;-80
2023/07/29 02:14:54;;;;;;;3.70;3.00;;;;;;;16.92;100.00;98963.86;108814;1236;61130;-80
2023/07/29 02:17:21;;;;;;;4.00;2.60;;;;;;;16.92;100.00;98962.09;108623;1240;74559;-81
2023/07/29 02:19:48;;;;;;;2.80;2.50;;;;;;;16.92;100.00;98967.04;108789;1238;70877;-79
2023/07/29 02:22:16;;;;;;;7.80;2.70;;;;;;;16.92;100.00;98966.17;108655;1239;72531;-80
2023/07/29 02:24:43;;;;;;;2.60;2.40;;;;;;;16.92;100.00;98967.98;108767;1236;61236;-80
2023/07/29 02:27:10;;;;;;;8.40;2.40;;;;;;;16.94;100.00;98972.26;108601;1237;61249;-79
2023/07/29 02:29:37;;;;;;;4.60;2.50;;;;;;;16.94;100.00;98972.05;108577;1235;74254;-78
2023/07/29 02:32:04;;;;;;;4.40;2.70;;;;;;;16.93;100.00;98972.17;108773;1234;61612;-80
2023/07/29 02:34:30;;;;;;;5.90;2.70;;;;;;;16.91;100.00;98964.63;108545;1238;72356;-77
2023/07/29 02:36:57;;;;;;;5.40;2.50;;;;;;;16.90;100.00;98961.72;108558;1239;61312;-80
2023/07/29 02:39:23;;;;;;;2.60;2.30;;;;;;;16.90;100.00;98962.97;108528;1234;61199;-79
2023/07/29 02:41:50;;;;;;;3.00;2.40;;;;;;;16.89;100.00;98969.56;108738;1238;61358;-79
2023/07/29 02:44:17;;;;;;;4.50;2.60;;;;;;;16.88;100.00;98970.01;108664;1236;71024;-79
2023/07/29 02:46:43;;;;;;;5.60;2.40;;;;;;;16.87;100.00;98973.80;108616;1239;61310;-79
2023/07/29 02:49:10;;;;;;;4.80;2.40;;;;;;;16.85;100.00;98975.84;108744;1237;61922;-79
2023/07/29 02:51:37;;;;;;;3.20;2.60;;;;;;;16.85;100.00;98977.98;108593;1239;61227;-79
2023/07/29 02:54:03;;;;;;;3.70;2.50;;;;;;;16.84;100.00;98978.58;108799;1235;73441;-80
2023/07/29 02:56:33;;;;;;;2.90;2.50;;;;;;;16.83;100.00;98973.67;108548;1238;70696;-80
2023/07/29 02:59:01;;;;;;;3.40;2.50;;;;;;;16.84;100.00;98973.63;108701;1237;73233;-79
2023/07/29 03:01:28;;;;;;;3.10;2.70;;;;;;;16.86;100.00;98977.61;108576;1235;61709;-80
2023/07/29 03:03:55;;;;;;;3.10;2.60;;;;;;;16.87;100.00;98975.41;108787;1236;61204;-81
2023/07/29 03:06:23;;;;;;;6.10;3.00;;;;;;;16.88;100.00;98974.29;108568;1240;74584;-80
2023/07/29 03:08:50;;;;;;;6.10;2.70;;;;;;;16.88;100.00;98972.69;108551;1234;70828;-79
2023/07/29 03:11:16;;;;;;;3.70;2.20;;;;;;;16.88;100.00;98974.27;108717;1235;72372;-78
2023/07/29 03:13:44;;;;;;;4.70;2.60;;;;;;;16.89;100.00;98977.38;108689;1232;61647;-79
2023/07/29 03:16:13;;;;;;;7.00;2.80;;;;;;;16.88;100.00;98979.77;108766;1236;61239;-81
2023/07/29 03:18:41;;;;;;;4.20;2.90;;;;;;;16.86;100.00;98982.52;108669;1238;75221;-80
2023/07/29 03:21:08;;;;;;;3.30;2.50;;;;;;;16.83;100.00;98983.07;108771;1234;71270;-81
2023/07/29 03:23:34;;;;;;;4.40;2.80;;;;;;;16.79;100.00;98984.94;108859;1236;72517;-80
2023/07/29 03:26:04;;;;;;;4.10;2.50;;;;;;;16.77;100.00;98986.53;109086;1238;61328;-80
2023/07/29 03:28:32;;;;;;;5.60;2.80;;;;;;;16.73;100.00;98995.62;109166;1233;61259;-80
2023/07/29 03:30:59;;;;;;;3.00;2.50;;;;;;;16.69;100.00;98995.90;108716;1236;74419;-78
2023/07/29 03:33:26;;;;;;;3.00;2.70;;;;;;;16.66;100.00;98995.20;108651;1237;70179;-79
2023/07/29 03:35:53;;;;;;;2.90;2.70;;;;;;;16.64;100.00;98997.46;108835;1237;72581;-80
2023/07/29 03:38:20;;;;;;;4.70;2.80;;;;;;;16.63;100.00;98994.00;108830;1236;61332;-81
2023/07/29 03:40:46;;;;;;;3.90;2.80;;;;;;;16.63;100.00;98995.96;108815;1232;61255;-80
2023/07/29 03:43:13;;;;;;;3.70;2.80;;;;;;;16.63;100.00;98995.76;108699;1237;74626;-80
2023/07/29 03:45:40;;;;;;;3.50;2.70;;;;;;;16.64;100.00;98998.51;108877;1235;70749;-79
2023/07/29 03:48:07;;;;;;;4.30;3.00;;;;;;;16.66;100.00;98998.74;108615;1235;72658;-79
2023/07/29 03:50:35;;;;;;;7.50;3.10;;;;;;;16.68;100.00;99001.78;108887;1232;61344;-77
2023/07/29 03:53:03;;;;;;;6.80;3.00;;;;;;;16.71;100.00;99002.44;108784;1236;61144;-80
2023/07/29 03:55:29;;;;;;;7.50;3.00;;;;;;;16.76;100.00;99001.59;108126;1234;1003753;-80
2023/07/29 03:57:57;;;;;;;10.10;3.10;;;;;;;16.82;100.00;98997.86;108942;1236;69530;-79
2023/07/29 04:00:24;;;;;;;10.80;3.10;;;;;;;16.86;100.00;98997.93;108807;1234;72412;-79
2023/07/29 04:02:51;;;;;;;4.00;2.50;;;;;;;16.91;100.00;98998.34;108830;1235;61612;-80
2023/07/29 04:05:18;;;;;;;4.00;2.70;;;;;;;16.95;100.00;98996.11;108581;1239;61256;-79
2023/07/29 04:07:45;;;;;;;3.70;2.60;;;;;;;16.99;100.00;98998.80;108777;1237;73034;-78
2023/07/29 04:10:11;;;;;;;4.80;2.60;;;;;;;17.03;100.00;98999.95;108614;1239;69585;-78
2023/07/29 04:12:38;;;;;;;7.10;2.70;;;;;;;17.08;100.00;98999.61;108549;1240;72305;-80
2023/07/29 04:15:05;;;;;;;9.50;2.50;;;;;;;17.12;100.00;99003.25;108692;1236;61333;-81
2023/07/29 04:17:32;;;;;;;2.80;2.50;;;;;;;17.17;100.00;98998.61;108695;1232;61323;-79
2023/07/29 04:19:59;;;;;;;2.90;2.30;;;;;;;17.21;100.00;99001.17;108533;1235;74431;-80
2023/07/29 04:22:29;;;;;;;3.40;2.30;;;;;;;17.26;100.00;99001.91;108791;1236;69916;-80
2023/07/29 04:24:56;;;;;;;4.10;2.60;;;;;;;17.31;100.00;99001.73;108761;1234;61225;-81
2023/07/29 04:27:23;;;;;;;2.90;2.20;;;;;;;17.39;100.00;99001.71;108752;1233;61193;-79
2023/07/29 04:29:49;;;;;;;3.30;2.50;;;;;;;17.47;100.00;98999.55;108711;1237;59992;-80
2023/07/29 04:32:16;;;;;;;4.50;2.50;;;;;;;17.57;100.00;98999.77;108714;1236;74519;-78
2023/07/29 04:34:43;;;;;;;4.00;2.90;;;;;;;17.65;100.00;98997.58;108540;1238;69553;-80
2023/07/29 04:37:10;;;;;;;11.60;4.60;;;;;;;17.72;100.00;98995.08;108696;1236;72538;-81
2023/07/29 04:39:37;;;;;;;7.30;3.90;;;;;;;17.79;100.00;98998.51;108651;1234;61396;-78
2023/07/29 04:42:03;;;;;;;4.10;3.50;;;;;;;17.87;100.00;99000.27;108518;1239;61232;-81
2023/07/29 04:44:30;;;;;;;3.20;2.60;;;;;;;17.89;100.00;99000.80;108663;1238;74485;-79
2023/07/29 04:46:57;;;;;;;2.80;2.30;;;;;;;17.89;100.00;98998.85;108796;1234;61332;-80
2023/07/29 04:49:23;;;;;;;4.10;2.40;;;;;;;17.89;100.00;99002.11;108758;1233;72547;-79
2023/07/29 04:51:50;;;;;;;4.80;2.50;;;;;;;17.90;100.00;99010.90;108729;1237;61246;-80
2023/07/29 04:54:17;;;;;;;2.80;2.50;;;;;;;17.91;100.00;99011.51;108663;1237;61141;-80
2023/07/29 04:56:43;;;;;;;3.20;2.20;;;;;;;17.93;100.00;99013.65;108556;1234;61258;-79
2023/07/29 04:59:12;;;;;;;3.10;2.30;;;;;;;17.93;100.00;99008.33;108585;1237;61341;-83
2023/07/29 05:01:39;;;;;;;3.00;2.50;;;;;;;17.93;100.00;99010.27;108781;1236;72391;-79
2023/07/29 05:04:06;;;;;;;2.50;2.20;;;;;;;17.94;100.00;99014.79;108731;1235;61660;-80
2023/07/29 05:06:33;;;;;;;5.70;2.70;;;;;;;17.96;100.00;99014.64;108517;1234;61370;-80
2023/07/29 05:09:15;;;;;;;8.60;2.70;;;;;;;17.98;100.00;99011.86;108512;1238;73436;-79
2023/07/29 05:11:45;;;;;;;6.90;2.60;;;;;;;17.99;100.00;99009.29;108643;1237;69605;-79
2023/07/29 05:14:13;;;;;;;4.50;2.60;;;;;;;18.02;100.00;99007.64;108806;1237;72379;-79
2023/07/29 05:16:39;;;;;;;9.20;2.30;;;;;;;18.05;100.00;99005.68;108732;1237;61662;-78
2023/07/29 05:19:06;;;;;;;2.70;2.50;;;;;;;18.08;100.00;99001.35;108544;1234;61354;-80
2023/07/29 05:21:33;;;;;;;4.70;2.70;;;;;;;18.11;100.00;99003.27;108714;1240;74385;-78
2023/07/29 05:24:00;;;;;;;3.20;2.40;;;;;;;18.15;100.00;99002.05;108959;1238;71039;-79
2023/07/29 05:26:26;;;;;;;5.80;2.50;;;;;;;18.22;100.00;98998.42;108601;1235;61341;-78
2023/07/29 05:28:53;;;;;;;10.10;3.30;;;;;;;18.26;100.00;98997.04;108728;1236;61255;-79
2023/07/29 05:31:19;;;;;;;3.30;2.20;;;;;;;18.29;100.00;98993.44;108797;1234;61226;-79
2023/07/29 05:33:46;;;;;;;7.70;2.20;;;;;;;18.34;100.00;98999.66;108639;1237;74594;-80
2023/07/29 05:36:14;;;;;;;5.00;2.40;;;;;;;18.40;100.00;98995.30;108590;1238;70041;-80
2023/07/29 05:38:40;;;;;;;2.90;2.10;;;;;;;18.48;100.00;98993.05;108727;1236;72349;-76
2023/07/29 05:41:07;;;;;;;2.10;2.00;;;;;;;18.55;100.00;98989.69;108692;1239;61336;-80
2023/07/29 05:43:33;;;;;;;3.40;2.40;;;;;;;18.61;100.00;98996.89;108689;1238;61312;-79
2023/07/29 05:46:00;;;;;;;2.30;2.10;;;;;;;18.61;100.00;98988.70;108763;1237;74336;-80
2023/07/29 05:48:28;;;;;;;2.90;2.70;;;;;;;18.58;100.00;98990.73;108799;1238;71051;-80
2023/07/29 05:50:54;;;;;;;4.40;2.40;;;;;;;18.56;100.00;98991.40;108642;1238;61341;-80
2023/07/29 05:53:21;;;;;;;3.00;2.50;;;;;;;18.56;100.00;98991.40;108717;1235;61290;-81
2023/07/29 05:55:47;;;;;;;5.80;2.50;;;;;;;18.60;100.00;98995.60;108572;1241;61322;-80
2023/07/29 05:58:14;;;;;;;7.90;2.60;;;;;;;18.64;100.00;98995.08;108672;1238;74560;-80
2023/07/29 06:00:41;;;;;;;2.60;2.40;;;;;;;18.71;100.00;98995.44;108771;1239;71053;-79
2023/07/29 06:03:08;;;;;;;2.90;2.50;;;;;;;18.81;100.00;98996.10;108699;1236;72508;-79
2023/07/29 06:05:35;;;;;;;3.90;2.30;;;;;;;18.90;100.00;98986.50;108548;1235;61302;-79
2023/07/29 06:08:04;;;;;;;5.30;2.60;;;;;;;19.00;100.00;98992.72;108716;1235;60229;-80
2023/07/29 06:10:30;;;;;;;6.30;2.50;;;;;;;19.10;100.00;98995.31;108590;1240;74402;-80
2023/07/29 06:12:57;;;;;;;4.80;2.50;;;;;;;19.18;100.00;98991.44;108523;1239;70835;-81
2023/07/29 06:15:24;;;;;;;3.70;2.30;;;;;;;19.25;100.00;98990.68;108716;1235;72344;-81
2023/07/29 06:17:50;;;;;;;2.80;2.20;;;;;;;19.28;100.00;98989.79;108754;1236;61375;-81
2023/07/29 06:20:17;;;;;;;5.40;2.30;;;;;;;19.32;100.00;98984.34;108701;1238;61223;-80
2023/07/29 06:22:44;;;;;;;3.70;2.10;;;;;;;19.36;100.00;98983.29;108752;1245;73044;-79
2023/07/29 06:25:10;;;;;;;2.50;2.30;;;;;;;19.40;100.00;98981.59;109640;1237;70918;-78
2023/07/29 06:27:38;;;;;;;5.00;2.30;;;;;;;19.39;100.00;98975.00;108920;1235;70933;-80
2023/07/29 06:30:05;;;;;;;4.00;2.60;;;;;;;19.38;100.00;98978.16;108661;1236;61540;-80
2023/07/29 06:32:34;;;;;;;3.70;2.20;;;;;;;19.41;100.00;98983.20;108717;1244;61226;-80
2023/07/29 06:35:00;;;;;;;3.90;2.10;;;;;;;19.51;100.00;98982.81;108927;1238;74474;-82
2023/07/29 06:37:27;;;;;;;2.30;1.90;;;;;;;19.59;100.00;98978.79;108771;1236;69660;-80
2023/07/29 06:39:54;;;;;;;2.80;2.20;;;;;;;19.64;100.00;98972.66;108811;1235;72415;-79
2023/07/29 06:42:20;;;;;;;2.10;1.90;;;;;;;19.69;100.00;98977.95;108646;1236;61257;-79
2023/07/29 06:44:47;;;;;;;3.70;2.10;;;;;;;19.76;100.00;98976.21;108617;1238;61570;-78
2023/07/29 06:47:14;;;;;;;2.70;2.10;;;;;;;19.83;100.00;98978.14;108709;1236;61335;-80
2023/07/29 06:49:41;;;;;;;5.30;2.90;;;;;;;19.90;100.00;98981.69;108856;1238;71010;-80
2023/07/29 06:52:07;;;;;;;2.70;2.50;;;;;;;19.98;100.00;98977.80;108740;1235;71471;-84
2023/07/29 06:54:34;;;;;;;4.90;2.90;;;;;;;20.05;100.00;98979.19;108754;1234;61223;-82
2023/07/29 06:57:01;;;;;;;5.20;2.20;;;;;;;20.08;100.00;98969.31;108682;1244;61229;-80
2023/07/29 06:59:28;;;;;;;1.80;1.70;;;;;;;20.05;100.00;98970.82;108685;1237;74547;-80
2023/07/29 07:01:54;;;;;;;4.50;2.70;;;;;;;20.02;100.00;98974.72;108782;1235;61357;-80
2023/07/29 07:04:21;;;;;;;4.10;2.20;;;;;;;20.05;100.00;98971.48;108322;1237;480012;-78
2023/07/29 07:06:48;;;;;;;2.80;2.00;;;;;;;20.13;100.00;98974.59;108709;1238;61341;-80
2023/07/29 07:09:15;;;;;;;3.10;2.80;;;;;;;20.17;100.00;98969.52;108659;1244;61248;-80
2023/07/29 07:11:41;;;;;;;5.40;2.60;;;;;;;20.22;100.00;98979.05;108737;1237;74691;-80
2023/07/29 07:14:08;;;;;;;2.80;2.20;;;;;;;20.29;100.00;98980.40;108654;1238;68679;-80
2023/07/29 07:16:36;;;;;;;2.70;2.10;;;;;;;20.30;100.00;98972.66;108737;1237;61264;-79
2023/07/29 07:19:04;;;;;;;3.90;2.40;;;;;;;20.32;100.00;98979.92;108756;1237;61236;-80
2023/07/29 07:21:32;;;;;;;5.10;2.50;;;;;;;20.42;100.00;98980.41;108819;1244;61233;-79
2023/07/29 07:23:59;;;;;;;5.50;2.30;;;;;;;20.51;100.00;98979.96;108951;1236;74530;-79
2023/07/29 07:26:25;;;;;;;3.00;2.40;;;;;;;20.60;100.00;98975.11;108794;1237;70942;-78
2023/07/29 07:28:52;;;;;;;12.50;2.80;;;;;;;20.68;100.00;98970.20;108735;1237;73506;-80
2023/07/29 07:31:19;;;;;;;2.70;2.50;;;;;;;20.71;100.00;98970.64;108718;1234;61344;-80
2023/07/29 07:33:47;;;;;;;3.80;2.10;;;;;;;20.70;100.00;98960.73;108728;1236;61213;-76
2023/07/29 07:36:13;;;;;;;3.50;2.10;;;;;;;20.73;100.00;98965.64;108798;1237;74269;-79
2023/07/29 07:38:40;;;;;;;2.40;2.10;;;;;;;20.76;100.00;98964.52;108768;1235;69520;-80
2023/07/29 07:41:07;;;;;;;6.50;2.40;;;;;;;20.75;100.00;98963.37;108752;1237;72601;-81
2023/07/29 07:43:34;;;;;;;2.40;2.20;;;;;;;20.74;100.00;98968.29;108856;1236;61744;-79
2023/07/29 07:46:01;;;;;;;3.30;2.40;;;;;;;20.76;100.00;98964.51;108807;1236;61216;-79
2023/07/29 07:48:28;;;;;;;4.90;2.00;;;;;;;20.81;100.00;98962.88;108835;1235;74442;-80
2023/07/29 07:50:55;;;;;;;2.10;1.90;;;;;;;20.89;100.00;98966.13;108733;1237;70814;-81
2023/07/29 07:53:22;;;;;;;4.50;1.80;;;;;;;20.94;100.00;98961.40;108747;1237;72621;-81
2023/07/29 07:55:48;;;;;;;5.10;2.20;;;;;;;20.97;100.00;98968.23;108823;1247;61236;-79
2023/07/29 07:58:15;;;;;;;2.00;1.90;;;;;;;21.02;100.00;98966.39;108766;1238;61338;-80
2023/07/29 08:00:42;;;;;;;2.30;1.80;;;;;;;21.05;100.00;98964.75;108757;1236;73132;-82
2023/07/29 08:03:09;;;;;;;4.10;1.70;;;;;;;21.09;100.00;98963.67;108829;1234;70811;-80
2023/07/29 08:05:36;;;;;;;1.70;1.60;;;;;;;21.15;100.00;98967.05;108764;1235;72881;-80
2023/07/29 08:08:03;;;;;;;2.30;2.00;;;;;;;21.21;100.00;98963.49;108798;1235;61258;-81
2023/07/29 08:10:30;;;;;;;7.90;2.30;;;;;;;21.26;100.00;98958.30;108703;1233;61216;-80
2023/07/29 08:12:56;;;;;;;2.10;1.90;;;;;;;21.28;100.00;98964.48;108649;1237;61245;-80
2023/07/29 08:15:23;;;;;;;2.10;1.90;;;;;;;21.31;100.00;98963.17;108731;1236;70853;-82
2023/07/29 08:17:49;;;;;;;1.90;1.80;;;;;;;21.29;100.00;98955.86;108717;1237;71086;-77
2023/07/29 08:20:16;;;;;;;2.40;2.10;;;;;;;21.26;100.00;98956.82;108712;1237;61277;-79
2023/07/29 08:22:43;;;;;;;2.60;2.20;;;;;;;21.26;100.00;98957.17;108721;1237;61251;-80
2023/07/29 08:25:10;;;;;;;3.20;2.10;;;;;;;21.29;100.00;98961.38;108815;1237;74551;-80
2023/07/29 08:27:37;;;;;;;3.80;2.00;;;;;;;21.34;100.00;98957.40;108709;1237;70095;-80
2023/07/29 08:30:04;;;;;;;2.40;2.20;;;;;;;21.44;100.00;98956.33;108809;1235;72495;-82
2023/07/29 08:32:31;;;;;;;4.30;1.70;;;;;;;21.55;100.00;98956.25;108801;1235;61347;-81
2023/07/29 08:34:57;;;;;;;1.70;1.60;;;;;;;21.65;100.00;98954.70;108695;1237;61214;-78
2023/07/29 08:37:24;;;;;;;4.40;1.90;;;;;;;21.75;100.00;98948.80;108772;1235;61335;-80
2023/07/29 08:39:53;;;;;;;1.60;1.50;;;;;;;21.86;100.00;98952.02;108850;1238;70907;-80
2023/07/29 08:42:20;;;;;;;2.80;2.00;;;;;;;21.96;100.00;98944.40;108876;1235;72501;-80
2023/07/29 08:44:48;;;;;;;4.40;2.00;;;;;;;21.96;100.00;98934.59;108916;1236;61256;-81
2023/07/29 08:47:14;;;;;;;3.40;2.00;;;;;;;21.94;100.00;98939.98;108896;1232;61092;-79
2023/07/29 08:49:41;;;;;;;2.30;1.90;;;;;;;22.00;100.00;98944.94;108993;1237;74568;-81
2023/07/29 08:52:08;;;;;;;3.20;2.10;;;;;;;22.09;100.00;98935.67;108828;1237;71013;-80
2023/07/29 08:54:35;;;;;;;2.80;2.00;;;;;;;22.11;100.00;98927.61;108790;1235;72403;-80
2023/07/29 08:57:01;;;;;;;2.00;1.50;;;;;;;22.11;100.00;98925.66;108819;1235;61322;-79
2023/07/29 08:59:28;;;;;;;3.30;1.80;;;;;;;22.15;100.00;98918.89;108707;1238;61451;-80
2023/07/29 09:01:56;;;;;;;3.00;2.30;;;;;;;22.19;100.00;98920.62;108781;1236;74660;-80
2023/07/29 09:04:25;;;;;;;2.60;1.90;;;;;;;22.26;100.00;98934.67;108872;1237;69548;-81
2023/07/29 09:06:52;;;;;;;5.60;1.70;;;;;;;22.38;100.00;98925.16;108705;1238;72440;-77
2023/07/29 09:09:19;;;;;;;2.00;1.60;;;;;;;22.50;100.00;98914.08;108647;1234;61306;-80
2023/07/29 09:11:46;;;;;;;7.30;1.90;;;;;;;22.56;100.00;98918.86;108831;1237;61377;-81
2023/07/29 09:14:12;;;;;;;4.00;1.60;;;;;;;22.59;100.00;98913.39;108562;1240;61233;-83
2023/07/29 09:16:39;;;;;;;6.80;2.00;;;;;;;22.58;100.00;98914.02;108757;1237;69587;-83
2023/07/29 09:19:06;;;;;;;2.10;1.90;;;;;;;22.53;100.00;98913.77;108983;1237;71026;-82
2023/07/29 09:21:33;;;;;;;1.90;1.80;;;;;;;22.52;100.00;98912.80;109780;1235;61313;-80
2023/07/29 09:24:02;;;;;;;5.70;1.70;;;;;;;22.54;100.00;98908.68;109234;1236;61404;-81
2023/07/29 09:26:29;;;;;;;1.70;1.60;;;;;;;22.60;100.00;98912.54;108875;1235;73787;-81
2023/07/29 09:28:56;;;;;;;5.60;2.10;;;;;;;22.70;100.00;98908.11;108748;1237;69761;-80
2023/07/29 09:31:24;;;;;;;2.00;1.70;;;;;;;22.84;100.00;98915.35;108807;1242;72673;-81
2023/07/29 09:34:04;;;;;;;4.20;2.00;;;;;;;22.99;100.00;98908.02;109000;1233;61226;-80
2023/07/29 09:36:31;;;;;;;3.50;1.80;;;;;;;23.11;100.00;98901.58;108812;1233;61216;-82
2023/07/29 09:38:58;;;;;;;3.60;1.40;;;;;;;23.15;100.00;98903.66;108751;1235;74467;-81
2023/07/29 09:41:26;;;;;;;2.90;1.80;;;;;;;23.15;100.00;98898.14;108750;1237;71037;-81
2023/07/29 09:43:59;;;;;;;3.60;1.70;;;;;;;23.05;100.00;98902.42;108894;1233;71572;-81
2023/07/29 09:46:35;;;;;;;2.60;1.80;;;;;;;22.98;100.00;98904.51;108909;1235;61341;-80
2023/07/29 09:49:07;;;;;;;4.40;1.70;;;;;;;23.01;100.00;98905.45;108792;1236;61144;-80
2023/07/29 09:51:40;;;;;;;6.30;2.10;;;;;;;23.12;100.00;98902.66;108809;1244;74472;-80
2023/07/29 09:54:07;;;;;;;1.60;1.40;;;;;;;23.18;100.00;98899.08;108785;1236;69867;-81
2023/07/29 09:56:33;;;;;;;4.30;1.60;;;;;;;23.22;100.00;98898.16;108803;1234;70613;-81
2023/07/29 09:59:01;;;;;;;2.10;1.60;;;;;;;23.28;100.00;98893.41;108837;1235;61305;-78
2023/07/29 10:01:32;;;;;;;5.10;1.40;;;;;;;23.39;100.00;98888.36;109007;1235;61675;-81
2023/07/29 10:04:00;;;;;;;1.40;1.20;;;;;;;23.51;100.00;98892.83;108999;1235;74436;-82
2023/07/29 10:06:27;;;;;;;1.30;1.20;;;;;;;23.56;100.00;98885.53;108993;1241;70903;-81
2023/07/29 10:08:54;;;;;;;5.00;1.40;;;;;;;23.56;100.00;98874.92;109081;1235;72301;-81
2023/07/29 10:11:20;;;;;;;3.40;1.50;;;;;;;23.63;100.00;98885.89;109118;1235;61298;-81
2023/07/29 10:13:47;;;;;;;4.20;1.20;;;;;;;23.76;100.00;98884.63;109204;1234;61105;-80
2023/07/29 10:16:34;;;;;;;2.60;1.30;;;;;;;23.85;100.00;98877.83;109343;1237;74369;-81
2023/07/29 10:19:01;;;;;;;2.60;1.20;;;;;;;23.91;100.00;98867.52;108981;1237;70978;-78
2023/07/29 10:21:28;;;;;;;3.60;1.20;;;;;;;24.03;100.00;98866.49;108739;1238;72542;-81
2023/07/29 10:23:54;;;;;;;1.80;1.20;;;;;;;24.19;100.00;98874.24;108792;1234;61247;-80
2023/07/29 10:26:21;;;;;;;1.80;1.20;;;;;;;24.28;100.00;98856.45;108981;1236;61391;-80
2023/07/29 10:28:48;;;;;;;2.80;1.20;;;;;;;24.33;100.00;98856.66;108677;1238;74330;-80
2023/07/29 10:31:17;;;;;;;2.70;1.20;;;;;;;24.44;100.00;98861.85;108820;1237;70904;-81
2023/07/29 10:33:44;;;;;;;2.00;1.20;;;;;;;24.52;100.00;98860.30;109137;1233;62517;-79
2023/07/29 10:36:10;;;;;;;1.80;1.60;;;;;;;24.58;100.00;98861.88;109053;1235;61300;-80
2023/07/29 10:38:37;;;;;;;3.50;1.50;;;;;;;24.61;100.00;98861.96;108994;1238;61195;-80
2023/07/29 10:41:03;;;;;;;1.70;1.40;;;;;;;24.61;100.00;98860.98;109247;1237;61338;-80
2023/07/29 10:43:30;;;;;;;1.80;1.50;;;;;;;24.59;100.00;98859.73;109147;1236;61327;-81
2023/07/29 10:46:16;;;;;;;1.70;1.30;;;;;;;24.61;100.00;98864.02;109056;1235;61270;-81
2023/07/29 10:48:43;;;;;;;2.70;1.60;;;;;;;24.66;100.00;98863.17;109261;1235;61367;-81
2023/07/29 10:51:22;;;;;;;1.40;1.30;;;;;;;24.71;100.00;98861.41;109256;1237;61209;-80
2023/07/29 10:53:52;;;;;;;1.40;1.30;;;;;;;24.73;100.00;98856.52;109250;1236;74407;-81
2023/07/29 10:56:35;;;;;;;1.60;1.40;;;;;;;24.81;100.00;98864.83;109275;1235;71280;-81
2023/07/29 10:59:30;;;;;;;1.30;1.10;;;;;;;24.91;100.00;98859.16;109402;1235;71624;-81
2023/07/29 11:01:58;;;;;;;2.00;1.40;;;;;;;24.96;100.00;98861.49;109357;1234;61322;-80
2023/07/29 11:04:26;;;;;;;9.40;1.30;;;;;;;24.97;100.00;98851.55;109417;1235;61204;-80
2023/07/29 11:07:10;;;;;;;1.20;1.20;;;;;;;24.92;100.00;98854.98;109377;1237;74534;-81
2023/07/29 11:10:00;;;;;;;2.40;1.20;;;;;;;24.83;100.00;98856.37;109560;1235;70834;-79
2023/07/29 11:12:51;;;;;;;1.50;1.30;;;;;;;24.82;100.00;98855.04;109251;1235;63956;-82
2023/07/29 11:15:24;;;;;;;1.80;0.90;;;;;;;24.92;100.00;98859.29;109383;1237;61076;-81
2023/07/29 11:17:55;;;;;;;3.50;1.30;;;;;;;25.07;100.00;98854.98;109756;1240;61226;-81
2023/07/29 11:20:23;;;;;;;4.00;1.40;;;;;;;25.10;100.00;98850.84;109507;1232;74329;-81